sensor_id;sensor_type;location;lat;lon;timestamp;P1;durP1;ratioP1;P2;durP2;ratioP2
38715;SDS011;24833;49.324;8.694;2024-01-15T00:01:07;12.95;;;7.10;;
38715;SDS011;24833;49.324;8.694;2024-01-15T00:03:34;15.90;;;7.15;;
38715;SDS011;24833;49.324;8.694;2024-01-15T00:06:01;15.52;;;7.07;;
38715;SDS011;24833;49.324;8.694;2024-01-15T00:08:29;14.70;;;7.28;;
38715;SDS011;24833;49.324;8.694;2024-01-15T00:10:56;15.23;;;7.03;;
38715;SDS011;24833;49.324;8.694;2024-01-15T00:13:23;15.30;;;7.07;;
38715;SDS011;24833;49.324;8.694;2024-01-15T00:15:50;15.93;;;7.55;;
38715;SDS011;24833;49.324;8.694;2024-01-15T00:18:17;14.25;;;6.22;;
38715;SDS011;24833;49.324;8.694;2024-01-15T00:20:45;14.32;;;6.65;;
38715;SDS011;24833;49.324;8.694;2024-01-15T00:23:12;14.48;;;7.10;;
38715;SDS011;24833;49.324;8.694;2024-01-15T00:25:39;16.45;;;7.07;;
38715;SDS011;24833;49.324;8.694;2024-01-15T00:28:07;14.80;;;7.28;;
38715;SDS011;24833;49.324;8.694;2024-01-15T00:30:34;13.85;;;6.32;;
38715;SDS011;24833;49.324;8.694;2024-01-15T00:33:01;14.23;;;6.82;;
38715;SDS011;24833;49.324;8.694;2024-01-15T00:35:29;13.30;;;6.80;;
38715;SDS011;24833;49.324;8.694;2024-01-15T00:37:56;13.93;;;6.53;;
38715;SDS011;24833;49.324;8.694;2024-01-15T00:40:23;12.77;;;6.93;;
38715;SDS011;24833;49.324;8.694;2024-01-15T00:42:51;14.27;;;6.53;;
38715;SDS011;24833;49.324;8.694;2024-01-15T00:45:18;13.98;;;6.88;;
38715;SDS011;24833;49.324;8.694;2024-01-15T00:47:46;12.57;;;7.22;;
38715;SDS011;24833;49.324;8.694;2024-01-15T00:50:13;15.05;;;7.55;;
38715;SDS011;24833;49.324;8.694;2024-01-15T00:52:40;16.13;;;7.35;;
38715;SDS011;24833;49.324;8.694;2024-01-15T00:55:07;13.15;;;7.10;;
38715;SDS011;24833;49.324;8.694;2024-01-15T00:57:34;13.20;;;7.00;;
38715;SDS011;24833;49.324;8.694;2024-01-15T01:00:01;15.10;;;7.35;;
38715;SDS011;24833;49.324;8.694;2024-01-15T01:02:32;14.00;;;7.15;;
38715;SDS011;24833;49.324;8.694;2024-01-15T01:04:59;11.20;;;6.47;;
38715;SDS011;24833;49.324;8.694;2024-01-15T01:07:26;12.38;;;6.15;;
38715;SDS011;24833;49.324;8.694;2024-01-15T01:09:53;15.90;;;6.95;;
38715;SDS011;24833;49.324;8.694;2024-01-15T01:12:21;12.70;;;6.47;;
38715;SDS011;24833;49.324;8.694;2024-01-15T01:14:48;11.65;;;6.03;;
38715;SDS011;24833;49.324;8.694;2024-01-15T01:17:15;13.63;;;6.55;;
38715;SDS011;24833;49.324;8.694;2024-01-15T01:19:42;16.88;;;7.07;;
38715;SDS011;24833;49.324;8.694;2024-01-15T01:22:09;11.05;;;6.47;;
38715;SDS011;24833;49.324;8.694;2024-01-15T01:24:36;15.23;;;7.32;;
38715;SDS011;24833;49.324;8.694;2024-01-15T01:27:04;17.73;;;6.75;;
38715;SDS011;24833;49.324;8.694;2024-01-15T01:29:31;13.90;;;6.95;;
38715;SDS011;24833;49.324;8.694;2024-01-15T01:31:58;14.00;;;6.47;;
38715;SDS011;24833;49.324;8.694;2024-01-15T01:34:25;13.77;;;6.40;;
38715;SDS011;24833;49.324;8.694;2024-01-15T01:36:53;11.88;;;6.35;;
38715;SDS011;24833;49.324;8.694;2024-01-15T01:39:20;14.25;;;7.32;;
38715;SDS011;24833;49.324;8.694;2024-01-15T01:41:47;11.95;;;6.57;;
38715;SDS011;24833;49.324;8.694;2024-01-15T01:44:14;15.68;;;7.65;;
38715;SDS011;24833;49.324;8.694;2024-01-15T01:46:41;12.63;;;7.10;;
38715;SDS011;24833;49.324;8.694;2024-01-15T01:49:08;14.43;;;8.15;;
38715;SDS011;24833;49.324;8.694;2024-01-15T01:51:36;17.95;;;8.23;;
38715;SDS011;24833;49.324;8.694;2024-01-15T01:54:05;16.73;;;7.88;;
38715;SDS011;24833;49.324;8.694;2024-01-15T01:56:34;16.58;;;8.32;;
38715;SDS011;24833;49.324;8.694;2024-01-15T01:59:02;18.40;;;7.72;;
38715;SDS011;24833;49.324;8.694;2024-01-15T02:01:31;18.48;;;8.27;;
38715;SDS011;24833;49.324;8.694;2024-01-15T02:03:58;17.05;;;7.82;;
38715;SDS011;24833;49.324;8.694;2024-01-15T02:06:26;16.23;;;7.75;;
38715;SDS011;24833;49.324;8.694;2024-01-15T02:08:54;13.13;;;7.60;;
38715;SDS011;24833;49.324;8.694;2024-01-15T02:11:21;13.43;;;6.97;;
38715;SDS011;24833;49.324;8.694;2024-01-15T02:13:48;14.73;;;7.55;;
38715;SDS011;24833;49.324;8.694;2024-01-15T02:16:15;15.50;;;7.97;;
38715;SDS011;24833;49.324;8.694;2024-01-15T02:18:45;15.20;;;8.10;;
38715;SDS011;24833;49.324;8.694;2024-01-15T02:21:13;17.35;;;7.70;;
38715;SDS011;24833;49.324;8.694;2024-01-15T02:23:40;14.52;;;7.30;;
38715;SDS011;24833;49.324;8.694;2024-01-15T02:26:07;15.40;;;6.88;;
38715;SDS011;24833;49.324;8.694;2024-01-15T02:28:35;15.75;;;6.97;;
38715;SDS011;24833;49.324;8.694;2024-01-15T02:31:02;14.00;;;7.00;;
38715;SDS011;24833;49.324;8.694;2024-01-15T02:33:29;17.83;;;7.63;;
38715;SDS011;24833;49.324;8.694;2024-01-15T02:35:57;15.38;;;6.38;;
38715;SDS011;24833;49.324;8.694;2024-01-15T02:38:24;14.07;;;6.95;;
38715;SDS011;24833;49.324;8.694;2024-01-15T02:40:51;11.43;;;6.28;;
38715;SDS011;24833;49.324;8.694;2024-01-15T02:43:18;13.00;;;6.20;;
38715;SDS011;24833;49.324;8.694;2024-01-15T02:45:45;13.27;;;6.53;;
38715;SDS011;24833;49.324;8.694;2024-01-15T02:48:13;10.23;;;5.78;;
38715;SDS011;24833;49.324;8.694;2024-01-15T02:50:40;12.52;;;6.18;;
38715;SDS011;24833;49.324;8.694;2024-01-15T02:53:07;12.18;;;5.65;;
38715;SDS011;24833;49.324;8.694;2024-01-15T02:55:35;15.02;;;7.15;;
38715;SDS011;24833;49.324;8.694;2024-01-15T02:58:02;12.95;;;7.13;;
38715;SDS011;24833;49.324;8.694;2024-01-15T03:00:30;13.75;;;6.63;;
38715;SDS011;24833;49.324;8.694;2024-01-15T03:02:57;12.80;;;6.78;;
38715;SDS011;24833;49.324;8.694;2024-01-15T03:05:24;17.10;;;7.32;;
38715;SDS011;24833;49.324;8.694;2024-01-15T03:07:51;14.13;;;7.63;;
38715;SDS011;24833;49.324;8.694;2024-01-15T03:10:18;12.23;;;6.50;;
38715;SDS011;24833;49.324;8.694;2024-01-15T03:12:45;13.25;;;6.63;;
38715;SDS011;24833;49.324;8.694;2024-01-15T03:15:13;10.15;;;6.28;;
38715;SDS011;24833;49.324;8.694;2024-01-15T03:17:41;16.48;;;6.70;;
38715;SDS011;24833;49.324;8.694;2024-01-15T03:20:09;12.55;;;6.10;;
38715;SDS011;24833;49.324;8.694;2024-01-15T03:22:37;12.80;;;6.55;;
38715;SDS011;24833;49.324;8.694;2024-01-15T03:25:04;12.02;;;6.47;;
38715;SDS011;24833;49.324;8.694;2024-01-15T03:27:33;11.45;;;6.15;;
38715;SDS011;24833;49.324;8.694;2024-01-15T03:30:00;10.35;;;5.30;;
38715;SDS011;24833;49.324;8.694;2024-01-15T03:32:28;8.55;;;5.00;;
38715;SDS011;24833;49.324;8.694;2024-01-15T03:34:55;11.52;;;5.95;;
38715;SDS011;24833;49.324;8.694;2024-01-15T03:37:23;11.07;;;4.85;;
38715;SDS011;24833;49.324;8.694;2024-01-15T03:39:50;10.65;;;5.90;;
38715;SDS011;24833;49.324;8.694;2024-01-15T03:42:17;10.80;;;5.28;;
38715;SDS011;24833;49.324;8.694;2024-01-15T03:44:44;10.02;;;5.07;;
38715;SDS011;24833;49.324;8.694;2024-01-15T03:47:11;9.10;;;5.38;;
38715;SDS011;24833;49.324;8.694;2024-01-15T03:49:38;9.10;;;4.85;;
38715;SDS011;24833;49.324;8.694;2024-01-15T03:52:05;10.60;;;5.05;;
38715;SDS011;24833;49.324;8.694;2024-01-15T03:54:32;11.65;;;5.63;;
38715;SDS011;24833;49.324;8.694;2024-01-15T03:56:59;11.00;;;5.55;;
38715;SDS011;24833;49.324;8.694;2024-01-15T03:59:26;10.57;;;5.20;;
38715;SDS011;24833;49.324;8.694;2024-01-15T04:01:53;7.38;;;4.82;;
38715;SDS011;24833;49.324;8.694;2024-01-15T04:04:21;8.20;;;4.32;;
38715;SDS011;24833;49.324;8.694;2024-01-15T04:06:48;7.78;;;4.45;;
38715;SDS011;24833;49.324;8.694;2024-01-15T04:09:15;9.23;;;4.95;;
38715;SDS011;24833;49.324;8.694;2024-01-15T04:11:42;10.02;;;5.03;;
38715;SDS011;24833;49.324;8.694;2024-01-15T04:14:09;10.93;;;5.38;;
38715;SDS011;24833;49.324;8.694;2024-01-15T04:16:37;9.95;;;4.85;;
38715;SDS011;24833;49.324;8.694;2024-01-15T04:19:04;8.45;;;4.78;;
38715;SDS011;24833;49.324;8.694;2024-01-15T04:21:31;9.88;;;5.43;;
38715;SDS011;24833;49.324;8.694;2024-01-15T04:23:58;13.60;;;6.60;;
38715;SDS011;24833;49.324;8.694;2024-01-15T04:26:25;8.98;;;5.07;;
38715;SDS011;24833;49.324;8.694;2024-01-15T04:28:53;14.85;;;5.50;;
38715;SDS011;24833;49.324;8.694;2024-01-15T04:31:20;11.35;;;5.05;;
38715;SDS011;24833;49.324;8.694;2024-01-15T04:33:54;9.43;;;5.35;;
38715;SDS011;24833;49.324;8.694;2024-01-15T04:36:21;10.80;;;5.38;;
38715;SDS011;24833;49.324;8.694;2024-01-15T04:38:48;9.02;;;4.88;;
38715;SDS011;24833;49.324;8.694;2024-01-15T04:41:16;10.63;;;5.78;;
38715;SDS011;24833;49.324;8.694;2024-01-15T04:43:43;11.57;;;5.53;;
38715;SDS011;24833;49.324;8.694;2024-01-15T04:46:10;9.40;;;5.10;;
38715;SDS011;24833;49.324;8.694;2024-01-15T04:48:38;10.88;;;5.30;;
38715;SDS011;24833;49.324;8.694;2024-01-15T04:51:05;9.50;;;5.25;;
38715;SDS011;24833;49.324;8.694;2024-01-15T04:53:35;6.75;;;3.67;;
38715;SDS011;24833;49.324;8.694;2024-01-15T04:56:02;7.05;;;3.88;;
38715;SDS011;24833;49.324;8.694;2024-01-15T04:58:30;10.65;;;4.95;;
38715;SDS011;24833;49.324;8.694;2024-01-15T05:00:57;9.55;;;5.35;;
38715;SDS011;24833;49.324;8.694;2024-01-15T05:03:24;8.93;;;5.10;;
38715;SDS011;24833;49.324;8.694;2024-01-15T05:05:51;9.75;;;5.13;;
38715;SDS011;24833;49.324;8.694;2024-01-15T05:08:19;10.48;;;5.45;;
38715;SDS011;24833;49.324;8.694;2024-01-15T05:10:46;10.45;;;5.53;;
38715;SDS011;24833;49.324;8.694;2024-01-15T05:13:13;8.68;;;4.88;;
38715;SDS011;24833;49.324;8.694;2024-01-15T05:15:41;8.68;;;4.82;;
38715;SDS011;24833;49.324;8.694;2024-01-15T05:18:08;9.70;;;4.97;;
38715;SDS011;24833;49.324;8.694;2024-01-15T05:20:35;8.73;;;5.43;;
38715;SDS011;24833;49.324;8.694;2024-01-15T05:23:02;9.68;;;5.80;;
38715;SDS011;24833;49.324;8.694;2024-01-15T05:25:29;12.85;;;6.32;;
38715;SDS011;24833;49.324;8.694;2024-01-15T05:27:57;10.63;;;6.13;;
38715;SDS011;24833;49.324;8.694;2024-01-15T05:30:24;12.43;;;5.75;;
38715;SDS011;24833;49.324;8.694;2024-01-15T05:32:51;9.10;;;5.43;;
38715;SDS011;24833;49.324;8.694;2024-01-15T05:35:18;10.40;;;4.88;;
38715;SDS011;24833;49.324;8.694;2024-01-15T05:37:45;10.93;;;5.60;;
38715;SDS011;24833;49.324;8.694;2024-01-15T05:40:13;10.80;;;5.00;;
38715;SDS011;24833;49.324;8.694;2024-01-15T05:42:40;10.93;;;5.95;;
38715;SDS011;24833;49.324;8.694;2024-01-15T05:45:08;8.80;;;4.68;;
38715;SDS011;24833;49.324;8.694;2024-01-15T05:47:35;9.57;;;5.38;;
38715;SDS011;24833;49.324;8.694;2024-01-15T05:50:02;9.93;;;5.43;;
38715;SDS011;24833;49.324;8.694;2024-01-15T05:52:30;9.10;;;5.63;;
38715;SDS011;24833;49.324;8.694;2024-01-15T05:54:57;8.85;;;5.50;;
38715;SDS011;24833;49.324;8.694;2024-01-15T05:57:24;10.63;;;5.60;;
38715;SDS011;24833;49.324;8.694;2024-01-15T05:59:51;11.10;;;5.88;;
38715;SDS011;24833;49.324;8.694;2024-01-15T06:02:19;11.00;;;5.95;;
38715;SDS011;24833;49.324;8.694;2024-01-15T06:04:46;11.18;;;6.03;;
38715;SDS011;24833;49.324;8.694;2024-01-15T06:07:13;9.43;;;5.43;;
38715;SDS011;24833;49.324;8.694;2024-01-15T06:09:40;10.02;;;5.60;;
38715;SDS011;24833;49.324;8.694;2024-01-15T06:12:07;9.98;;;5.70;;
38715;SDS011;24833;49.324;8.694;2024-01-15T06:14:34;9.60;;;5.50;;
38715;SDS011;24833;49.324;8.694;2024-01-15T06:17:02;10.65;;;5.85;;
38715;SDS011;24833;49.324;8.694;2024-01-15T06:19:29;13.77;;;6.60;;
38715;SDS011;24833;49.324;8.694;2024-01-15T06:21:56;8.40;;;5.60;;
38715;SDS011;24833;49.324;8.694;2024-01-15T06:24:23;9.75;;;5.72;;
38715;SDS011;24833;49.324;8.694;2024-01-15T06:26:51;8.93;;;5.55;;
38715;SDS011;24833;49.324;8.694;2024-01-15T06:29:18;11.23;;;6.00;;
38715;SDS011;24833;49.324;8.694;2024-01-15T06:31:45;9.98;;;5.88;;
38715;SDS011;24833;49.324;8.694;2024-01-15T06:34:12;10.02;;;5.53;;
38715;SDS011;24833;49.324;8.694;2024-01-15T06:36:42;8.70;;;5.20;;
38715;SDS011;24833;49.324;8.694;2024-01-15T06:39:09;9.52;;;5.65;;
38715;SDS011;24833;49.324;8.694;2024-01-15T06:41:36;9.93;;;5.68;;
38715;SDS011;24833;49.324;8.694;2024-01-15T06:44:10;8.77;;;5.38;;
38715;SDS011;24833;49.324;8.694;2024-01-15T06:46:43;11.25;;;5.32;;
38715;SDS011;24833;49.324;8.694;2024-01-15T06:49:10;10.32;;;5.97;;
38715;SDS011;24833;49.324;8.694;2024-01-15T06:51:38;9.38;;;5.50;;
38715;SDS011;24833;49.324;8.694;2024-01-15T06:54:05;10.68;;;5.93;;
38715;SDS011;24833;49.324;8.694;2024-01-15T06:56:33;11.68;;;5.43;;
38715;SDS011;24833;49.324;8.694;2024-01-15T06:59:00;11.20;;;6.35;;
38715;SDS011;24833;49.324;8.694;2024-01-15T07:01:27;10.02;;;6.30;;
38715;SDS011;24833;49.324;8.694;2024-01-15T07:03:54;11.77;;;6.28;;
38715;SDS011;24833;49.324;8.694;2024-01-15T07:06:21;10.95;;;5.93;;
38715;SDS011;24833;49.324;8.694;2024-01-15T07:08:48;9.02;;;5.85;;
38715;SDS011;24833;49.324;8.694;2024-01-15T07:11:16;9.20;;;5.88;;
38715;SDS011;24833;49.324;8.694;2024-01-15T07:13:43;14.05;;;6.70;;
38715;SDS011;24833;49.324;8.694;2024-01-15T07:16:10;10.30;;;5.97;;
38715;SDS011;24833;49.324;8.694;2024-01-15T07:18:37;11.77;;;6.30;;
38715;SDS011;24833;49.324;8.694;2024-01-15T07:21:04;11.32;;;6.05;;
38715;SDS011;24833;49.324;8.694;2024-01-15T07:23:31;12.00;;;6.22;;
38715;SDS011;24833;49.324;8.694;2024-01-15T07:25:59;12.32;;;6.13;;
38715;SDS011;24833;49.324;8.694;2024-01-15T07:28:28;10.43;;;5.93;;
38715;SDS011;24833;49.324;8.694;2024-01-15T07:30:55;11.05;;;6.05;;
38715;SDS011;24833;49.324;8.694;2024-01-15T07:33:23;8.80;;;5.13;;
38715;SDS011;24833;49.324;8.694;2024-01-15T07:35:50;9.88;;;5.68;;
38715;SDS011;24833;49.324;8.694;2024-01-15T07:38:17;11.48;;;5.90;;
38715;SDS011;24833;49.324;8.694;2024-01-15T07:40:44;11.27;;;5.85;;
38715;SDS011;24833;49.324;8.694;2024-01-15T07:45:42;8.68;;;4.65;;
38715;SDS011;24833;49.324;8.694;2024-01-15T07:48:11;8.77;;;5.13;;
38715;SDS011;24833;49.324;8.694;2024-01-15T07:50:38;12.52;;;6.18;;
38715;SDS011;24833;49.324;8.694;2024-01-15T07:53:05;9.40;;;5.60;;
38715;SDS011;24833;49.324;8.694;2024-01-15T07:55:32;8.48;;;4.43;;
38715;SDS011;24833;49.324;8.694;2024-01-15T07:57:59;10.20;;;5.55;;
38715;SDS011;24833;49.324;8.694;2024-01-15T08:03:08;7.93;;;4.10;;
38715;SDS011;24833;49.324;8.694;2024-01-15T08:05:35;9.55;;;5.80;;
38715;SDS011;24833;49.324;8.694;2024-01-15T08:08:02;13.02;;;5.85;;
38715;SDS011;24833;49.324;8.694;2024-01-15T08:10:30;9.07;;;5.57;;
38715;SDS011;24833;49.324;8.694;2024-01-15T08:12:57;10.50;;;5.88;;
38715;SDS011;24833;49.324;8.694;2024-01-15T08:15:24;11.05;;;6.05;;
38715;SDS011;24833;49.324;8.694;2024-01-15T08:17:56;11.38;;;6.43;;
38715;SDS011;24833;49.324;8.694;2024-01-15T08:20:24;11.13;;;5.95;;
38715;SDS011;24833;49.324;8.694;2024-01-15T08:22:52;11.43;;;6.53;;
38715;SDS011;24833;49.324;8.694;2024-01-15T08:25:19;10.25;;;6.45;;
38715;SDS011;24833;49.324;8.694;2024-01-15T08:27:46;10.00;;;5.75;;
38715;SDS011;24833;49.324;8.694;2024-01-15T08:30:13;9.20;;;5.75;;
38715;SDS011;24833;49.324;8.694;2024-01-15T08:32:40;8.80;;;5.68;;
38715;SDS011;24833;49.324;8.694;2024-01-15T08:35:09;12.65;;;5.88;;
38715;SDS011;24833;49.324;8.694;2024-01-15T08:37:38;10.90;;;5.50;;
38715;SDS011;24833;49.324;8.694;2024-01-15T08:40:05;10.93;;;5.82;;
38715;SDS011;24833;49.324;8.694;2024-01-15T08:42:32;8.88;;;5.68;;
38715;SDS011;24833;49.324;8.694;2024-01-15T08:45:00;8.32;;;5.85;;
38715;SDS011;24833;49.324;8.694;2024-01-15T08:47:28;9.98;;;5.50;;
38715;SDS011;24833;49.324;8.694;2024-01-15T08:49:55;10.45;;;5.70;;
38715;SDS011;24833;49.324;8.694;2024-01-15T08:52:22;9.63;;;5.28;;
38715;SDS011;24833;49.324;8.694;2024-01-15T08:54:49;9.07;;;5.43;;
38715;SDS011;24833;49.324;8.694;2024-01-15T08:57:16;8.13;;;5.40;;
38715;SDS011;24833;49.324;8.694;2024-01-15T08:59:44;8.57;;;5.35;;
38715;SDS011;24833;49.324;8.694;2024-01-15T09:02:11;8.40;;;5.40;;
38715;SDS011;24833;49.324;8.694;2024-01-15T09:04:38;10.48;;;5.25;;
38715;SDS011;24833;49.324;8.694;2024-01-15T09:07:06;10.30;;;5.70;;
38715;SDS011;24833;49.324;8.694;2024-01-15T09:09:34;10.52;;;6.28;;
38715;SDS011;24833;49.324;8.694;2024-01-15T09:12:01;11.70;;;6.10;;
38715;SDS011;24833;49.324;8.694;2024-01-15T09:14:28;11.35;;;6.32;;
38715;SDS011;24833;49.324;8.694;2024-01-15T09:17:03;10.10;;;6.13;;
38715;SDS011;24833;49.324;8.694;2024-01-15T09:19:31;9.50;;;5.90;;
38715;SDS011;24833;49.324;8.694;2024-01-15T09:21:59;11.93;;;5.50;;
38715;SDS011;24833;49.324;8.694;2024-01-15T09:24:26;11.98;;;5.95;;
38715;SDS011;24833;49.324;8.694;2024-01-15T09:26:55;9.93;;;5.88;;
38715;SDS011;24833;49.324;8.694;2024-01-15T09:29:22;11.18;;;5.88;;
38715;SDS011;24833;49.324;8.694;2024-01-15T09:31:50;10.27;;;6.50;;
38715;SDS011;24833;49.324;8.694;2024-01-15T09:34:18;10.07;;;5.40;;
38715;SDS011;24833;49.324;8.694;2024-01-15T09:36:46;10.13;;;6.07;;
38715;SDS011;24833;49.324;8.694;2024-01-15T09:39:14;11.32;;;5.82;;
38715;SDS011;24833;49.324;8.694;2024-01-15T09:41:42;10.32;;;6.30;;
38715;SDS011;24833;49.324;8.694;2024-01-15T09:44:09;7.38;;;4.85;;
38715;SDS011;24833;49.324;8.694;2024-01-15T09:46:38;7.82;;;5.45;;
38715;SDS011;24833;49.324;8.694;2024-01-15T09:49:06;8.55;;;5.68;;
38715;SDS011;24833;49.324;8.694;2024-01-15T09:51:34;9.00;;;5.60;;
38715;SDS011;24833;49.324;8.694;2024-01-15T09:54:02;9.95;;;5.85;;
38715;SDS011;24833;49.324;8.694;2024-01-15T09:56:30;9.68;;;6.30;;
38715;SDS011;24833;49.324;8.694;2024-01-15T09:58:58;9.90;;;5.45;;
38715;SDS011;24833;49.324;8.694;2024-01-15T10:01:26;9.80;;;5.63;;
38715;SDS011;24833;49.324;8.694;2024-01-15T10:03:54;10.32;;;5.88;;
38715;SDS011;24833;49.324;8.694;2024-01-15T10:06:22;9.70;;;5.80;;
38715;SDS011;24833;49.324;8.694;2024-01-15T10:08:50;8.98;;;5.47;;
38715;SDS011;24833;49.324;8.694;2024-01-15T10:11:18;9.93;;;5.65;;
38715;SDS011;24833;49.324;8.694;2024-01-15T10:13:45;9.13;;;5.82;;
38715;SDS011;24833;49.324;8.694;2024-01-15T10:16:16;11.85;;;6.30;;
38715;SDS011;24833;49.324;8.694;2024-01-15T10:18:43;13.00;;;6.57;;
38715;SDS011;24833;49.324;8.694;2024-01-15T10:21:10;8.40;;;5.95;;
38715;SDS011;24833;49.324;8.694;2024-01-15T10:23:37;11.15;;;6.35;;
38715;SDS011;24833;49.324;8.694;2024-01-15T10:26:04;13.20;;;6.47;;
38715;SDS011;24833;49.324;8.694;2024-01-15T10:28:31;8.57;;;6.30;;
38715;SDS011;24833;49.324;8.694;2024-01-15T10:30:59;8.90;;;5.80;;
38715;SDS011;24833;49.324;8.694;2024-01-15T10:33:27;13.18;;;7.13;;
38715;SDS011;24833;49.324;8.694;2024-01-15T10:35:58;13.43;;;6.63;;
38715;SDS011;24833;49.324;8.694;2024-01-15T10:38:26;11.38;;;6.93;;
38715;SDS011;24833;49.324;8.694;2024-01-15T10:40:54;12.43;;;6.63;;
38715;SDS011;24833;49.324;8.694;2024-01-15T10:43:22;14.02;;;7.72;;
38715;SDS011;24833;49.324;8.694;2024-01-15T10:45:54;11.40;;;6.70;;
38715;SDS011;24833;49.324;8.694;2024-01-15T10:48:22;11.82;;;6.28;;
38715;SDS011;24833;49.324;8.694;2024-01-15T10:50:49;9.65;;;6.28;;
38715;SDS011;24833;49.324;8.694;2024-01-15T10:53:16;10.68;;;6.47;;
38715;SDS011;24833;49.324;8.694;2024-01-15T10:55:44;11.00;;;6.70;;
38715;SDS011;24833;49.324;8.694;2024-01-15T10:58:15;8.57;;;5.72;;
38715;SDS011;24833;49.324;8.694;2024-01-15T11:00:43;11.93;;;6.18;;
38715;SDS011;24833;49.324;8.694;2024-01-15T11:03:11;11.60;;;6.05;;
38715;SDS011;24833;49.324;8.694;2024-01-15T11:05:43;10.05;;;5.72;;
38715;SDS011;24833;49.324;8.694;2024-01-15T11:08:10;7.05;;;4.95;;
38715;SDS011;24833;49.324;8.694;2024-01-15T11:10:39;8.48;;;5.38;;
38715;SDS011;24833;49.324;8.694;2024-01-15T11:13:53;8.85;;;5.68;;
38715;SDS011;24833;49.324;8.694;2024-01-15T11:16:01;7.80;;;4.78;;
38715;SDS011;24833;49.324;8.694;2024-01-15T11:18:41;8.77;;;5.75;;
38715;SDS011;24833;49.324;8.694;2024-01-15T11:21:28;9.27;;;5.45;;
38715;SDS011;24833;49.324;8.694;2024-01-15T11:23:58;8.82;;;5.78;;
38715;SDS011;24833;49.324;8.694;2024-01-15T11:26:28;7.65;;;5.15;;
38715;SDS011;24833;49.324;8.694;2024-01-15T11:28:59;8.35;;;5.57;;
38715;SDS011;24833;49.324;8.694;2024-01-15T11:31:56;13.30;;;6.70;;
38715;SDS011;24833;49.324;8.694;2024-01-15T11:34:17;12.43;;;6.55;;
38715;SDS011;24833;49.324;8.694;2024-01-15T11:41:57;9.05;;;5.55;;
38715;SDS011;24833;49.324;8.694;2024-01-15T11:44:26;8.85;;;5.82;;
38715;SDS011;24833;49.324;8.694;2024-01-15T11:47:00;9.88;;;5.60;;
38715;SDS011;24833;49.324;8.694;2024-01-15T11:52:38;8.93;;;5.60;;
38715;SDS011;24833;49.324;8.694;2024-01-15T11:55:07;8.15;;;5.30;;
38715;SDS011;24833;49.324;8.694;2024-01-15T11:57:41;6.95;;;4.82;;
38715;SDS011;24833;49.324;8.694;2024-01-15T12:00:21;8.82;;;5.47;;
38715;SDS011;24833;49.324;8.694;2024-01-15T12:02:49;9.07;;;5.72;;
38715;SDS011;24833;49.324;8.694;2024-01-15T12:05:18;7.38;;;5.55;;
38715;SDS011;24833;49.324;8.694;2024-01-15T12:07:48;9.98;;;5.85;;
38715;SDS011;24833;49.324;8.694;2024-01-15T12:10:16;8.55;;;5.72;;
38715;SDS011;24833;49.324;8.694;2024-01-15T12:15:39;11.73;;;6.40;;
38715;SDS011;24833;49.324;8.694;2024-01-15T12:18:12;10.68;;;6.15;;
38715;SDS011;24833;49.324;8.694;2024-01-15T12:20:44;9.52;;;6.68;;
38715;SDS011;24833;49.324;8.694;2024-01-15T12:23:14;9.88;;;6.50;;
38715;SDS011;24833;49.324;8.694;2024-01-15T12:25:43;7.97;;;5.75;;
38715;SDS011;24833;49.324;8.694;2024-01-15T12:28:10;10.02;;;6.68;;
38715;SDS011;24833;49.324;8.694;2024-01-15T12:30:38;9.40;;;5.57;;
38715;SDS011;24833;49.324;8.694;2024-01-15T12:33:06;10.73;;;6.70;;
38715;SDS011;24833;49.324;8.694;2024-01-15T12:35:35;7.82;;;5.57;;
38715;SDS011;24833;49.324;8.694;2024-01-15T12:38:03;11.45;;;5.60;;
38715;SDS011;24833;49.324;8.694;2024-01-15T12:40:32;11.38;;;6.03;;
38715;SDS011;24833;49.324;8.694;2024-01-15T12:43:03;9.65;;;5.95;;
38715;SDS011;24833;49.324;8.694;2024-01-15T12:45:32;9.07;;;6.15;;
38715;SDS011;24833;49.324;8.694;2024-01-15T12:48:02;8.77;;;5.68;;
38715;SDS011;24833;49.324;8.694;2024-01-15T12:50:30;9.13;;;5.82;;
38715;SDS011;24833;49.324;8.694;2024-01-15T12:52:59;10.43;;;6.20;;
38715;SDS011;24833;49.324;8.694;2024-01-15T12:55:26;8.35;;;5.57;;
38715;SDS011;24833;49.324;8.694;2024-01-15T12:57:53;7.40;;;5.43;;
38715;SDS011;24833;49.324;8.694;2024-01-15T13:00:22;7.80;;;5.70;;
38715;SDS011;24833;49.324;8.694;2024-01-15T13:02:49;8.88;;;5.15;;
38715;SDS011;24833;49.324;8.694;2024-01-15T13:05:16;8.50;;;5.20;;
38715;SDS011;24833;49.324;8.694;2024-01-15T13:07:44;8.13;;;5.53;;
38715;SDS011;24833;49.324;8.694;2024-01-15T13:10:11;10.50;;;6.22;;
38715;SDS011;24833;49.324;8.694;2024-01-15T13:12:40;9.18;;;5.63;;
38715;SDS011;24833;49.324;8.694;2024-01-15T13:15:08;9.90;;;6.22;;
38715;SDS011;24833;49.324;8.694;2024-01-15T13:17:41;8.52;;;5.88;;
38715;SDS011;24833;49.324;8.694;2024-01-15T13:20:10;9.90;;;6.05;;
38715;SDS011;24833;49.324;8.694;2024-01-15T13:22:38;8.10;;;5.72;;
38715;SDS011;24833;49.324;8.694;2024-01-15T13:25:07;10.55;;;5.95;;
38715;SDS011;24833;49.324;8.694;2024-01-15T13:27:35;11.75;;;6.20;;
38715;SDS011;24833;49.324;8.694;2024-01-15T13:30:04;6.95;;;5.03;;
38715;SDS011;24833;49.324;8.694;2024-01-15T13:32:34;10.00;;;5.33;;
38715;SDS011;24833;49.324;8.694;2024-01-15T13:35:02;7.03;;;5.15;;
38715;SDS011;24833;49.324;8.694;2024-01-15T13:37:32;7.22;;;4.95;;
38715;SDS011;24833;49.324;8.694;2024-01-15T13:39:59;6.65;;;3.75;;
38715;SDS011;24833;49.324;8.694;2024-01-15T13:42:26;6.25;;;3.95;;
38715;SDS011;24833;49.324;8.694;2024-01-15T13:44:54;4.68;;;3.08;;
38715;SDS011;24833;49.324;8.694;2024-01-15T13:47:21;6.97;;;4.43;;
38715;SDS011;24833;49.324;8.694;2024-01-15T13:49:48;6.15;;;3.78;;
38715;SDS011;24833;49.324;8.694;2024-01-15T13:52:15;6.05;;;3.78;;
38715;SDS011;24833;49.324;8.694;2024-01-15T13:54:44;5.55;;;3.90;;
38715;SDS011;24833;49.324;8.694;2024-01-15T13:57:16;5.22;;;3.75;;
38715;SDS011;24833;49.324;8.694;2024-01-15T13:59:45;6.65;;;4.10;;
38715;SDS011;24833;49.324;8.694;2024-01-15T14:02:12;5.38;;;4.07;;
38715;SDS011;24833;49.324;8.694;2024-01-15T14:04:46;6.55;;;4.32;;
38715;SDS011;24833;49.324;8.694;2024-01-15T14:07:15;6.93;;;4.60;;
38715;SDS011;24833;49.324;8.694;2024-01-15T14:09:42;7.22;;;5.05;;
38715;SDS011;24833;49.324;8.694;2024-01-15T14:12:09;8.75;;;6.32;;
38715;SDS011;24833;49.324;8.694;2024-01-15T14:14:38;7.88;;;5.43;;
38715;SDS011;24833;49.324;8.694;2024-01-15T14:17:06;6.90;;;5.03;;
38715;SDS011;24833;49.324;8.694;2024-01-15T14:19:33;5.57;;;4.47;;
38715;SDS011;24833;49.324;8.694;2024-01-15T14:22:00;5.68;;;4.20;;
38715;SDS011;24833;49.324;8.694;2024-01-15T14:24:27;6.60;;;4.38;;
38715;SDS011;24833;49.324;8.694;2024-01-15T14:26:54;7.05;;;5.20;;
38715;SDS011;24833;49.324;8.694;2024-01-15T14:29:23;7.32;;;4.85;;
38715;SDS011;24833;49.324;8.694;2024-01-15T14:31:52;6.22;;;4.32;;
38715;SDS011;24833;49.324;8.694;2024-01-15T14:34:19;8.68;;;6.10;;
38715;SDS011;24833;49.324;8.694;2024-01-15T14:36:50;6.57;;;4.97;;
38715;SDS011;24833;49.324;8.694;2024-01-15T14:39:17;7.50;;;5.68;;
38715;SDS011;24833;49.324;8.694;2024-01-15T14:41:45;7.32;;;5.60;;
38715;SDS011;24833;49.324;8.694;2024-01-15T14:44:13;8.00;;;5.72;;
38715;SDS011;24833;49.324;8.694;2024-01-15T14:46:40;7.30;;;4.93;;
38715;SDS011;24833;49.324;8.694;2024-01-15T14:49:07;7.03;;;4.78;;
38715;SDS011;24833;49.324;8.694;2024-01-15T14:51:34;7.18;;;4.43;;
38715;SDS011;24833;49.324;8.694;2024-01-15T14:54:02;7.22;;;4.70;;
38715;SDS011;24833;49.324;8.694;2024-01-15T14:56:29;7.60;;;5.30;;
38715;SDS011;24833;49.324;8.694;2024-01-15T14:58:56;9.25;;;6.03;;
38715;SDS011;24833;49.324;8.694;2024-01-15T15:01:23;8.27;;;5.55;;